Airfield :
LOGIN :

Register | Disclaimer

   EN    FR    IT 

 










Legend :    VFR   Marginal VFR   IFR   Intensive IFR   Very Intensive IFR
Visi :
Ceiling :
>= 8 km
>= 3000ft
5 to 8 km
1000 to 3000 ft
1500m to 5 km
500 to 1000 ft
800 to 1500m
200 to 500 ft
< 800m
< 200 ft
Symbols :   Thunderstorms  Fog  Heavy snow  Heavy precipitations  Wind > 20 kt
SIGMETs :     Misc.  Thunderstorms  Icing  Turbulence  Mountain Waves  Volcanic Ashes






- Airport Elevation : 1161 ft
- IATA code : RJL


LELO - Logroño-Agoncillo

CURRENT METAR :
  • 121800Z VRB03KT 9999 FEW027 SCT038 BKN050 13/08 Q1017

EXPIRED METARs :
  • 121730Z VRB03KT 9999 FEW027 SCT038 BKN050 14/09 Q1017
  • 121700Z 00000KT 9999 FEW032 BKN050 14/09 Q1016
  • 121630Z 30007KT 250V050 9999 -RA FEW032 SCT050 BKN070 13/10 Q1016
  • 121600Z VRB05KT 9999 FEW032 SCT050 15/09 Q1015
  • 121530Z VRB07KT 9999 -RA FEW032 SCT050 BKN065 13/10 Q1015

TAF TAF LELO
Valid from the 12 at 15:00 until the 13 at 15:00 UTC


121400Z 1215/1315 34015KT 9999 SCT050 TX19/1315Z TN06/1305Z
PROB40
TEMPO 1215/1218 35020G36KT
BECMG 1220/1222 VRB04KT
BECMG 1310/1312 28008KT
TEMPO 1312/1315 RA



MET'MAP, your aeronautical weather chart ! - Copyright ORBIFLY December 2007 - Disclaimer

ORBIFLY MET'MAP TEAM :

Programming & Development : Alexandra Zaïnal
Concept & original design : Baudouin d'Aumeries
Assistance for programming : Marc-Olivier Méhu
Technical & hardware support : Manuel Goepfert

Contact : metmap@orbifly.com




SOURCES & CREDITS :

   NOAA